Time;durP1;ratioP1;P1;durP2;ratioP2;P2;SDS_P1;SDS_P2;PMS_P1;PMS_P2;Temp;Humidity;BMP_temperature;BMP_pressure;BME280_temperature;BME280_humidity;BME280_pressure;Samples;Min_cycle;Max_cycle;Signal;HPM_P1;HPM_P2
2023/12/30 00:00:49;;;;;;;5.20;1.20;;;;;;;;;;5027222;28;20406;-60
2023/12/30 00:03:15;;;;;;;4.97;1.20;;;;;;;;;;5026447;28;20942;-60
2023/12/30 00:05:40;;;;;;;5.17;1.07;;;;;;;;;;5027892;28;20418;-60
2023/12/30 00:08:05;;;;;;;5.22;1.30;;;;;;;;;;5026790;28;20755;-61
2023/12/30 00:10:31;;;;;;;4.57;1.20;;;;;;;;;;5026796;28;20434;-60
2023/12/30 00:12:56;;;;;;;5.00;1.10;;;;;;;;;;5027303;28;20427;-60
2023/12/30 00:15:21;;;;;;;5.67;1.20;;;;;;;;;;5026763;28;20406;-60
2023/12/30 00:17:46;;;;;;;6.37;1.43;;;;;;;;;;5026772;28;20434;-61
2023/12/30 00:20:12;;;;;;;5.90;1.30;;;;;;;;;;5026433;28;20802;-60
2023/12/30 00:22:37;;;;;;;6.93;1.73;;;;;;;;;;5026791;28;20700;-60
2023/12/30 00:25:03;;;;;;;5.63;1.33;;;;;;;;;;5026838;28;20395;-61
2023/12/30 00:27:28;;;;;;;5.53;1.40;;;;;;;;;;5025067;28;20398;-60
2023/12/30 00:29:53;;;;;;;5.07;1.30;;;;;;;;;;5026166;28;20494;-60
2023/12/30 00:32:19;;;;;;;5.53;1.60;;;;;;;;;;5027005;28;20491;-60
2023/12/30 00:34:44;;;;;;;6.50;1.33;;;;;;;;;;5030243;28;20418;-60
2023/12/30 00:37:09;;;;;;;6.00;1.57;;;;;;;;;;5029795;28;20434;-61
2023/12/30 00:39:35;;;;;;;6.80;1.27;;;;;;;;;;5030475;28;20411;-61
2023/12/30 00:42:00;;;;;;;10.23;1.70;;;;;;;;;;5031088;28;20433;-60
2023/12/30 00:44:25;;;;;;;6.67;1.27;;;;;;;;;;5029811;28;20834;-60
2023/12/30 00:46:50;;;;;;;7.20;1.53;;;;;;;;;;5031035;28;20391;-60
2023/12/30 00:49:16;;;;;;;5.20;1.57;;;;;;;;;;5025543;28;20398;-60
2023/12/30 00:51:41;;;;;;;4.80;1.23;;;;;;;;;;5029532;28;21073;-60
2023/12/30 00:54:06;;;;;;;7.33;1.37;;;;;;;;;;5030216;28;20415;-61
2023/12/30 00:56:32;;;;;;;6.10;1.33;;;;;;;;;;5030675;28;20441;-60
2023/12/30 00:58:57;;;;;;;6.17;1.43;;;;;;;;;;5029979;28;20407;-60
2023/12/30 01:01:23;;;;;;;8.67;1.73;;;;;;;;;;5029456;28;20391;-60
2023/12/30 01:03:48;;;;;;;9.40;1.80;;;;;;;;;;5030397;28;20395;-60
2023/12/30 01:06:13;;;;;;;7.67;1.70;;;;;;;;;;5029841;28;20399;-60
2023/12/30 01:08:39;;;;;;;9.10;1.60;;;;;;;;;;5030361;28;20485;-60
2023/12/30 01:11:04;;;;;;;6.13;1.47;;;;;;;;;;5029402;28;20771;-60
2023/12/30 01:13:29;;;;;;;7.17;1.40;;;;;;;;;;5029825;28;20480;-60
2023/12/30 01:15:55;;;;;;;7.25;1.52;;;;;;;;;;5030336;28;20461;-60
2023/12/30 01:18:20;;;;;;;8.10;1.50;;;;;;;;;;5029680;28;20474;-60
2023/12/30 01:20:45;;;;;;;8.00;2.10;;;;;;;;;;5028841;28;20410;-60
2023/12/30 01:23:10;;;;;;;8.80;1.53;;;;;;;;;;5029675;28;20411;-60
2023/12/30 01:25:38;;;;;;;7.33;1.63;;;;;;;;;;5030155;28;20920;-60
2023/12/30 01:28:03;;;;;;;8.17;1.50;;;;;;;;;;5028982;28;20917;-60
2023/12/30 01:30:29;;;;;;;7.78;1.40;;;;;;;;;;5029621;28;20438;-60
2023/12/30 01:32:54;;;;;;;10.77;1.90;;;;;;;;;;5029670;28;20427;-60
2023/12/30 01:35:19;;;;;;;7.83;1.63;;;;;;;;;;5029187;28;20475;-60
2023/12/30 01:37:45;;;;;;;6.82;1.73;;;;;;;;;;5030007;28;20413;-60
2023/12/30 01:40:10;;;;;;;10.10;1.63;;;;;;;;;;5028077;28;20507;-60
2023/12/30 01:42:35;;;;;;;6.57;1.37;;;;;;;;;;5029945;28;20395;-60
2023/12/30 01:45:00;;;;;;;6.40;1.70;;;;;;;;;;5029085;28;20498;-61
2023/12/30 01:47:26;;;;;;;9.40;1.60;;;;;;;;;;5029002;28;20403;-60
2023/12/30 01:49:51;;;;;;;9.30;1.80;;;;;;;;;;5024158;28;20470;-60
2023/12/30 01:52:16;;;;;;;8.95;2.00;;;;;;;;;;5028100;28;20901;-60
2023/12/30 01:54:41;;;;;;;7.57;1.63;;;;;;;;;;5028952;28;20495;-60
2023/12/30 01:57:07;;;;;;;10.83;1.90;;;;;;;;;;5028931;28;20395;-61
2023/12/30 01:59:32;;;;;;;7.17;1.40;;;;;;;;;;5027582;28;20399;-61
2023/12/30 02:01:57;;;;;;;8.70;1.60;;;;;;;;;;5028610;28;20488;-60
2023/12/30 02:04:24;;;;;;;8.43;1.73;;;;;;;;;;5028887;28;20426;-60
2023/12/30 02:06:50;;;;;;;9.07;1.75;;;;;;;;;;5029589;28;20991;-60
2023/12/30 02:09:15;;;;;;;8.77;1.83;;;;;;;;;;5028187;28;20425;-60
2023/12/30 02:11:40;;;;;;;8.87;1.73;;;;;;;;;;5028792;28;20411;-60
2023/12/30 02:14:21;;;;;;;9.60;1.80;;;;;;;;;;5027260;28;20902;-61
2023/12/30 02:16:46;;;;;;;8.60;1.80;;;;;;;;;;5028605;28;20407;-60
2023/12/30 02:19:11;;;;;;;9.50;1.70;;;;;;;;;;5028570;28;20410;-60
2023/12/30 02:21:37;;;;;;;9.00;1.80;;;;;;;;;;5028146;28;20399;-60
2023/12/30 02:24:02;;;;;;;9.05;1.55;;;;;;;;;;5028168;28;20460;-60
2023/12/30 02:26:28;;;;;;;9.33;1.80;;;;;;;;;;5029199;28;20474;-60
2023/12/30 02:28:54;;;;;;;7.60;1.55;;;;;;;;;;5009062;28;20405;-60
2023/12/30 02:31:19;;;;;;;8.90;1.60;;;;;;;;;;5007788;28;20485;-60
2023/12/30 02:33:44;;;;;;;9.10;1.90;;;;;;;;;;5024684;28;20774;-60
2023/12/30 02:36:09;;;;;;;8.43;2.00;;;;;;;;;;5028000;28;20535;-60
2023/12/30 02:38:35;;;;;;;8.23;1.50;;;;;;;;;;5028238;28;20949;-60
2023/12/30 02:41:00;;;;;;;7.07;1.43;;;;;;;;;;5028304;28;20407;-60
2023/12/30 02:43:25;;;;;;;10.20;1.60;;;;;;;;;;5027779;28;20437;-60
2023/12/30 02:45:50;;;;;;;10.20;1.90;;;;;;;;;;5028669;28;20410;-60
2023/12/30 02:48:16;;;;;;;10.07;1.60;;;;;;;;;;5022262;28;20411;-60
2023/12/30 02:50:41;;;;;;;8.45;1.77;;;;;;;;;;5027018;28;21392;-60
2023/12/30 02:53:06;;;;;;;12.23;1.77;;;;;;;;;;5028208;28;20442;-60
2023/12/30 02:55:31;;;;;;;11.60;2.13;;;;;;;;;;5028430;28;20461;-60
2023/12/30 02:57:57;;;;;;;9.10;2.10;;;;;;;;;;5027094;28;20395;-60
2023/12/30 03:00:22;;;;;;;9.30;1.97;;;;;;;;;;5027414;28;20403;-60
2023/12/30 03:02:47;;;;;;;10.00;2.00;;;;;;;;;;5028395;28;20395;-60
2023/12/30 03:05:13;;;;;;;9.33;1.80;;;;;;;;;;5027193;28;20407;-60
2023/12/30 03:07:38;;;;;;;7.40;1.98;;;;;;;;;;5028281;28;20406;-60
2023/12/30 03:10:04;;;;;;;11.17;2.10;;;;;;;;;;5027101;28;20931;-61
2023/12/30 03:12:29;;;;;;;10.80;1.90;;;;;;;;;;5014873;28;20412;-60
2023/12/30 03:14:54;;;;;;;8.40;1.67;;;;;;;;;;5002153;28;20419;-60
2023/12/30 03:17:20;;;;;;;8.30;2.07;;;;;;;;;;4998699;28;20963;-60
2023/12/30 03:19:45;;;;;;;9.93;1.97;;;;;;;;;;4998221;28;20417;-60
2023/12/30 03:22:10;;;;;;;9.30;1.93;;;;;;;;;;4999023;28;20417;-60
2023/12/30 03:24:36;;;;;;;7.37;1.70;;;;;;;;;;4999231;28;20836;-60
2023/12/30 03:27:01;;;;;;;13.17;2.53;;;;;;;;;;4995021;28;20413;-61
2023/12/30 03:29:26;;;;;;;10.83;1.80;;;;;;;;;;4991993;28;20413;-60
2023/12/30 03:31:52;;;;;;;7.77;1.80;;;;;;;;;;4990815;28;20408;-60
2023/12/30 03:34:17;;;;;;;11.27;1.70;;;;;;;;;;5022911;28;20421;-60
2023/12/30 03:36:42;;;;;;;9.83;1.90;;;;;;;;;;4998952;28;20417;-60
2023/12/30 03:39:08;;;;;;;9.43;1.70;;;;;;;;;;4998610;28;20495;-60
2023/12/30 03:41:33;;;;;;;10.30;1.80;;;;;;;;;;4998256;28;20408;-60
2023/12/30 03:43:58;;;;;;;7.63;1.73;;;;;;;;;;4999149;28;20460;-60
2023/12/30 03:46:23;;;;;;;8.35;1.58;;;;;;;;;;4998475;28;20404;-60
2023/12/30 03:48:49;;;;;;;12.93;2.40;;;;;;;;;;4992124;28;20425;-60
2023/12/30 03:51:14;;;;;;;9.97;1.53;;;;;;;;;;5009790;28;21102;-60
2023/12/30 03:53:40;;;;;;;7.87;1.67;;;;;;;;;;5006557;28;20944;-60
2023/12/30 03:56:06;;;;;;;7.43;1.80;;;;;;;;;;4992580;28;20389;-61
2023/12/30 03:58:31;;;;;;;10.90;1.90;;;;;;;;;;4998388;28;20403;-60
2023/12/30 04:00:56;;;;;;;9.57;1.60;;;;;;;;;;5010991;28;20903;-60
2023/12/30 04:03:22;;;;;;;12.37;1.90;;;;;;;;;;4998300;28;20393;-61
2023/12/30 04:05:47;;;;;;;9.33;1.80;;;;;;;;;;4998908;28;20411;-60
2023/12/30 04:08:12;;;;;;;11.50;1.90;;;;;;;;;;4999825;28;20456;-60
2023/12/30 04:10:38;;;;;;;9.48;1.63;;;;;;;;;;5002101;28;20400;-60
2023/12/30 04:13:03;;;;;;;8.07;1.97;;;;;;;;;;4996421;28;20920;-60
2023/12/30 04:15:28;;;;;;;9.60;1.83;;;;;;;;;;4994688;28;20393;-60
2023/12/30 04:17:54;;;;;;;11.37;1.83;;;;;;;;;;4995115;28;20411;-60
2023/12/30 04:20:19;;;;;;;9.73;2.23;;;;;;;;;;5000994;28;20451;-60
2023/12/30 04:22:44;;;;;;;11.10;2.75;;;;;;;;;;5026431;28;20870;-60
2023/12/30 04:25:09;;;;;;;10.60;2.90;;;;;;;;;;5030659;28;20490;-60
2023/12/30 04:27:35;;;;;;;11.90;3.70;;;;;;;;;;5031109;28;20866;-60
2023/12/30 04:30:01;;;;;;;13.65;4.53;;;;;;;;;;5026748;28;20407;-63
2023/12/30 04:32:26;;;;;;;18.17;6.10;;;;;;;;;;5031122;28;20485;-60
2023/12/30 04:34:51;;;;;;;16.57;7.00;;;;;;;;;;5030772;28;20396;-60
2023/12/30 04:37:17;;;;;;;16.13;8.10;;;;;;;;;;5030217;28;20407;-60
2023/12/30 04:39:42;;;;;;;18.00;8.07;;;;;;;;;;5030121;28;20475;-60
2023/12/30 04:42:07;;;;;;;19.10;8.27;;;;;;;;;;5030490;28;20408;-61
2023/12/30 04:44:33;;;;;;;16.13;7.17;;;;;;;;;;5030374;28;20807;-60
2023/12/30 04:46:58;;;;;;;14.93;6.13;;;;;;;;;;5031104;28;20419;-60
2023/12/30 04:49:23;;;;;;;14.77;4.47;;;;;;;;;;5025461;28;20813;-60
2023/12/30 04:51:48;;;;;;;12.63;3.37;;;;;;;;;;5029679;28;20404;-60
2023/12/30 04:54:14;;;;;;;10.20;2.83;;;;;;;;;;5019431;28;20432;-60
2023/12/30 04:56:39;;;;;;;10.43;2.30;;;;;;;;;;5002201;28;20884;-61
2023/12/30 04:59:04;;;;;;;9.87;2.30;;;;;;;;;;5000656;28;20760;-60
2023/12/30 05:01:31;;;;;;;10.93;2.60;;;;;;;;;;5010368;28;20693;-60
2023/12/30 05:03:56;;;;;;;10.53;2.17;;;;;;;;;;5001917;28;20453;-60
2023/12/30 05:06:21;;;;;;;13.70;2.60;;;;;;;;;;5000558;28;20900;-60
2023/12/30 05:08:48;;;;;;;10.23;1.97;;;;;;;;;;4997111;28;20409;-60
2023/12/30 05:11:14;;;;;;;8.27;1.63;;;;;;;;;;4992108;28;20416;-60
2023/12/30 05:13:39;;;;;;;10.93;2.17;;;;;;;;;;5013153;28;20442;-60
2023/12/30 05:16:05;;;;;;;14.23;2.43;;;;;;;;;;5017795;28;21200;-60
2023/12/30 05:18:30;;;;;;;10.18;2.10;;;;;;;;;;5020095;28;20801;-60
2023/12/30 05:20:55;;;;;;;11.37;2.07;;;;;;;;;;5018047;28;20770;-60
2023/12/30 05:23:20;;;;;;;10.07;2.13;;;;;;;;;;5001432;28;20745;-60
2023/12/30 05:25:46;;;;;;;11.83;2.00;;;;;;;;;;5034681;28;20406;-60
2023/12/30 05:28:11;;;;;;;12.00;2.10;;;;;;;;;;5004766;28;20401;-60
2023/12/30 05:30:36;;;;;;;10.02;2.17;;;;;;;;;;5003330;28;20445;-60
2023/12/30 05:33:02;;;;;;;11.20;1.97;;;;;;;;;;5012277;28;20498;-60
2023/12/30 05:35:27;;;;;;;11.20;1.80;;;;;;;;;;5013156;28;20403;-60
2023/12/30 05:37:52;;;;;;;12.30;2.20;;;;;;;;;;4998278;28;20463;-60
2023/12/30 05:40:18;;;;;;;11.23;1.87;;;;;;;;;;4999555;28;20760;-60
2023/12/30 05:42:43;;;;;;;11.82;2.20;;;;;;;;;;5019947;28;20959;-60
2023/12/30 05:45:09;;;;;;;9.57;1.80;;;;;;;;;;5007718;28;20423;-60
2023/12/30 05:47:34;;;;;;;10.88;1.90;;;;;;;;;;5000377;28;20432;-60
2023/12/30 05:49:59;;;;;;;10.17;2.73;;;;;;;;;;4996129;28;20446;-60
2023/12/30 05:52:25;;;;;;;10.80;2.40;;;;;;;;;;4999770;28;20397;-60
2023/12/30 05:54:50;;;;;;;9.73;2.10;;;;;;;;;;4996404;28;20411;-61
2023/12/30 05:57:15;;;;;;;11.70;2.30;;;;;;;;;;5019262;28;20407;-60
2023/12/30 05:59:41;;;;;;;12.77;2.20;;;;;;;;;;5028793;28;20434;-60
2023/12/30 06:02:07;;;;;;;11.23;2.22;;;;;;;;;;5023811;28;20395;-61
2023/12/30 06:04:32;;;;;;;9.67;2.00;;;;;;;;;;5029541;28;20897;-60
2023/12/30 06:06:57;;;;;;;10.40;1.97;;;;;;;;;;5029161;28;20804;-60
2023/12/30 06:09:23;;;;;;;13.53;2.57;;;;;;;;;;5028324;28;20406;-60
2023/12/30 06:11:48;;;;;;;10.43;2.13;;;;;;;;;;5003509;28;21501;-60
2023/12/30 06:14:14;;;;;;;10.70;2.15;;;;;;;;;;4992816;28;21125;-60
2023/12/30 06:16:39;;;;;;;9.37;2.07;;;;;;;;;;4997076;28;20389;-60
2023/12/30 06:19:05;;;;;;;13.07;2.43;;;;;;;;;;5000219;28;20412;-61
2023/12/30 06:21:30;;;;;;;10.60;2.30;;;;;;;;;;4998778;28;20447;-60
2023/12/30 06:23:55;;;;;;;10.43;2.07;;;;;;;;;;5000382;28;20431;-60
2023/12/30 06:26:20;;;;;;;11.63;2.07;;;;;;;;;;4999530;28;20432;-60
2023/12/30 06:28:46;;;;;;;9.30;2.17;;;;;;;;;;4998400;28;20474;-60
2023/12/30 06:31:12;;;;;;;11.15;2.17;;;;;;;;;;4996345;28;20452;-60
2023/12/30 06:33:37;;;;;;;14.00;2.90;;;;;;;;;;4992981;28;20405;-60
2023/12/30 06:36:02;;;;;;;11.20;2.27;;;;;;;;;;4992426;28;20396;-61
2023/12/30 06:38:27;;;;;;;11.25;1.92;;;;;;;;;;5010369;28;20391;-60
2023/12/30 06:40:53;;;;;;;12.03;2.47;;;;;;;;;;5010904;28;20456;-61
2023/12/30 06:43:18;;;;;;;12.40;2.63;;;;;;;;;;4998999;28;20454;-60
2023/12/30 06:45:43;;;;;;;12.57;2.13;;;;;;;;;;4999841;28;20405;-60
2023/12/30 06:48:08;;;;;;;12.17;2.70;;;;;;;;;;4994551;28;20405;-61
2023/12/30 06:50:34;;;;;;;11.80;2.23;;;;;;;;;;4999142;28;20496;-60
2023/12/30 06:52:59;;;;;;;11.53;2.03;;;;;;;;;;4999234;28;20955;-60
2023/12/30 06:55:24;;;;;;;10.83;2.10;;;;;;;;;;4993490;28;20405;-60
2023/12/30 06:57:50;;;;;;;11.70;3.20;;;;;;;;;;4995347;28;20504;-60
2023/12/30 07:00:15;;;;;;;12.43;2.30;;;;;;;;;;4991504;28;20404;-61
2023/12/30 07:02:41;;;;;;;15.50;2.83;;;;;;;;;;4998574;28;20396;-61
2023/12/30 07:05:07;;;;;;;11.18;2.47;;;;;;;;;;4998928;28;20613;-61
2023/12/30 07:07:33;;;;;;;13.85;2.67;;;;;;;;;;5018806;28;20897;-60
2023/12/30 07:09:58;;;;;;;12.17;2.63;;;;;;;;;;5017222;28;20395;-60
2023/12/30 07:12:24;;;;;;;15.00;3.10;;;;;;;;;;5018029;28;20727;-61
2023/12/30 07:14:49;;;;;;;14.30;3.00;;;;;;;;;;5018481;28;21040;-60
2023/12/30 07:17:15;;;;;;;13.33;2.90;;;;;;;;;;5014281;28;20398;-61
2023/12/30 07:19:40;;;;;;;13.95;3.13;;;;;;;;;;5006085;28;20428;-60
2023/12/30 07:22:06;;;;;;;13.63;2.83;;;;;;;;;;4992402;28;20491;-61
2023/12/30 07:24:31;;;;;;;12.50;2.80;;;;;;;;;;4995702;28;20524;-60
2023/12/30 07:26:56;;;;;;;13.30;3.07;;;;;;;;;;4998817;28;20446;-60
2023/12/30 07:29:22;;;;;;;14.07;3.33;;;;;;;;;;4998542;28;20471;-60
2023/12/30 07:31:48;;;;;;;14.03;2.93;;;;;;;;;;4998113;28;20413;-60
2023/12/30 07:34:13;;;;;;;13.82;3.20;;;;;;;;;;4998976;28;20527;-60
2023/12/30 07:36:38;;;;;;;13.97;3.27;;;;;;;;;;4999570;28;20399;-60
2023/12/30 07:39:04;;;;;;;11.53;3.00;;;;;;;;;;4996119;28;20412;-61
2023/12/30 07:41:29;;;;;;;14.93;3.28;;;;;;;;;;4991272;28;20417;-60
2023/12/30 07:43:54;;;;;;;12.77;3.20;;;;;;;;;;4994532;28;20400;-60
2023/12/30 07:46:21;;;;;;;18.30;3.70;;;;;;;;;;5003493;28;20434;-60
2023/12/30 07:48:46;;;;;;;11.98;2.92;;;;;;;;;;5025005;28;20762;-60
2023/12/30 07:51:11;;;;;;;16.33;3.90;;;;;;;;;;5030555;28;20407;-61
2023/12/30 07:53:37;;;;;;;34.35;18.83;;;;;;;;;;5031349;28;20418;-60
2023/12/30 07:56:02;;;;;;;60.27;38.83;;;;;;;;;;5030791;28;20434;-61
2023/12/30 07:58:27;;;;;;;19.23;7.67;;;;;;;;;;5031527;28;20401;-60
2023/12/30 08:00:53;;;;;;;16.50;6.07;;;;;;;;;;5030118;28;20441;-60
2023/12/30 08:03:18;;;;;;;14.33;4.17;;;;;;;;;;5029754;28;20391;-61
2023/12/30 08:05:43;;;;;;;10.77;3.37;;;;;;;;;;5031717;28;20403;-60
2023/12/30 08:08:09;;;;;;;15.40;3.50;;;;;;;;;;5030207;28;20399;-60
2023/12/30 08:10:34;;;;;;;12.57;3.67;;;;;;;;;;5031109;28;20399;-60
2023/12/30 08:13:00;;;;;;;16.10;4.30;;;;;;;;;;5030910;28;20403;-60
2023/12/30 08:15:25;;;;;;;16.77;8.37;;;;;;;;;;5030543;28;20411;-60
2023/12/30 08:17:51;;;;;;;13.73;3.00;;;;;;;;;;5031223;28;20391;-60
2023/12/30 08:20:16;;;;;;;12.53;2.60;;;;;;;;;;5030209;28;20786;-60
2023/12/30 08:22:41;;;;;;;13.67;3.00;;;;;;;;;;5030420;28;20398;-60
2023/12/30 08:25:07;;;;;;;16.13;3.77;;;;;;;;;;5031056;28;20420;-60
2023/12/30 08:27:33;;;;;;;13.30;3.40;;;;;;;;;;5030547;28;20403;-60
2023/12/30 08:29:58;;;;;;;13.37;2.90;;;;;;;;;;5030175;28;20908;-60
2023/12/30 08:32:23;;;;;;;15.57;3.90;;;;;;;;;;5030698;28;20410;-60
2023/12/30 08:34:49;;;;;;;13.47;3.30;;;;;;;;;;5029741;28;20415;-60
2023/12/30 08:37:14;;;;;;;12.60;3.33;;;;;;;;;;5030083;28;20399;-60
2023/12/30 08:39:39;;;;;;;14.30;3.22;;;;;;;;;;5030441;28;20474;-60
2023/12/30 08:42:06;;;;;;;13.77;2.97;;;;;;;;;;5030098;28;20418;-61
2023/12/30 08:44:31;;;;;;;14.03;2.97;;;;;;;;;;5030496;28;20399;-60
2023/12/30 08:46:57;;;;;;;20.77;9.13;;;;;;;;;;5030428;28;20938;-60
2023/12/30 08:49:22;;;;;;;15.27;5.13;;;;;;;;;;5024937;28;20618;-60
2023/12/30 08:51:47;;;;;;;15.17;4.03;;;;;;;;;;5030039;28;20469;-60
2023/12/30 08:54:13;;;;;;;19.93;8.83;;;;;;;;;;5028888;28;20419;-61
2023/12/30 08:56:38;;;;;;;17.47;4.80;;;;;;;;;;5029625;28;21187;-60
2023/12/30 08:59:03;;;;;;;14.10;4.13;;;;;;;;;;5029852;28;20408;-61
2023/12/30 09:01:29;;;;;;;11.23;3.07;;;;;;;;;;5029900;28;20399;-61
2023/12/30 09:03:54;;;;;;;12.83;3.07;;;;;;;;;;5030447;28;20498;-61
2023/12/30 09:06:20;;;;;;;14.00;2.78;;;;;;;;;;5030367;28;20409;-61
2023/12/30 09:08:45;;;;;;;13.60;2.50;;;;;;;;;;5030449;28;20428;-60
2023/12/30 09:11:20;;;;;;;13.57;3.20;;;;;;;;;;5028988;28;20427;-61
2023/12/30 09:13:46;;;;;;;13.20;2.70;;;;;;;;;;5030091;28;20411;-60
2023/12/30 09:16:11;;;;;;;11.03;2.70;;;;;;;;;;5029995;28;20402;-60
2023/12/30 09:18:36;;;;;;;12.95;2.70;;;;;;;;;;5029714;28;20492;-60
2023/12/30 09:21:02;;;;;;;10.87;2.43;;;;;;;;;;5027942;28;20411;-61
2023/12/30 09:23:27;;;;;;;12.17;2.83;;;;;;;;;;5030258;28;20403;-60
2023/12/30 09:25:52;;;;;;;14.17;2.90;;;;;;;;;;5029806;28;20400;-60
2023/12/30 09:28:17;;;;;;;14.90;3.70;;;;;;;;;;5029860;28;20893;-60
2023/12/30 09:30:43;;;;;;;13.87;3.73;;;;;;;;;;5029296;28;20395;-60
2023/12/30 09:33:08;;;;;;;11.03;2.87;;;;;;;;;;5029056;28;20434;-60
2023/12/30 09:35:33;;;;;;;12.17;3.00;;;;;;;;;;5030449;28;20526;-60
2023/12/30 09:37:59;;;;;;;11.73;2.67;;;;;;;;;;5029810;28;20403;-60
2023/12/30 09:40:24;;;;;;;13.57;2.77;;;;;;;;;;5028300;28;20426;-60
2023/12/30 09:42:50;;;;;;;12.23;2.87;;;;;;;;;;5030080;28;20474;-60
2023/12/30 09:45:16;;;;;;;16.17;3.53;;;;;;;;;;5028815;28;20816;-61
2023/12/30 09:47:41;;;;;;;14.97;4.93;;;;;;;;;;5029035;28;20406;-60
2023/12/30 09:50:07;;;;;;;30.87;18.97;;;;;;;;;;5023728;28;20411;-61
2023/12/30 09:52:32;;;;;;;39.75;22.80;;;;;;;;;;5028000;28;20387;-61
2023/12/30 09:54:58;;;;;;;14.37;4.03;;;;;;;;;;5029162;28;20415;-60
2023/12/30 09:57:23;;;;;;;12.57;2.95;;;;;;;;;;5023558;28;20393;-60
2023/12/30 09:59:48;;;;;;;13.13;2.70;;;;;;;;;;5025106;28;20886;-61
2023/12/30 10:02:14;;;;;;;14.73;2.90;;;;;;;;;;5027723;28;20403;-61
2023/12/30 10:04:39;;;;;;;12.40;2.60;;;;;;;;;;5029119;28;20762;-61
2023/12/30 10:07:04;;;;;;;15.53;3.60;;;;;;;;;;5028608;28;20391;-61
2023/12/30 10:09:30;;;;;;;16.02;3.20;;;;;;;;;;5028672;28;20403;-62
2023/12/30 10:11:55;;;;;;;13.30;3.33;;;;;;;;;;5029130;28;20742;-60
2023/12/30 10:14:20;;;;;;;15.03;4.23;;;;;;;;;;5028280;28;20474;-61
2023/12/30 10:16:46;;;;;;;11.27;3.00;;;;;;;;;;5029394;28;20442;-60
2023/12/30 10:19:11;;;;;;;13.37;3.13;;;;;;;;;;5028738;28;20415;-61
2023/12/30 10:21:38;;;;;;;13.88;3.55;;;;;;;;;;5028011;28;20414;-60
2023/12/30 10:24:04;;;;;;;14.57;3.00;;;;;;;;;;5028965;28;20391;-60
2023/12/30 10:26:30;;;;;;;11.65;2.53;;;;;;;;;;5028934;28;20461;-60
2023/12/30 10:28:55;;;;;;;13.77;3.03;;;;;;;;;;5028392;28;20398;-60
2023/12/30 10:31:20;;;;;;;14.57;2.80;;;;;;;;;;5027954;28;20403;-60
2023/12/30 10:33:46;;;;;;;11.13;2.30;;;;;;;;;;5028674;28;20813;-60
2023/12/30 10:36:12;;;;;;;10.70;2.38;;;;;;;;;;5027985;28;20525;-60
2023/12/30 10:38:37;;;;;;;13.77;2.83;;;;;;;;;;5044182;28;20486;-60
2023/12/30 10:41:02;;;;;;;13.97;2.97;;;;;;;;;;5027397;28;20414;-60
2023/12/30 10:43:28;;;;;;;13.63;2.80;;;;;;;;;;5028411;28;20407;-61
2023/12/30 10:45:56;;;;;;;15.57;3.00;;;;;;;;;;5028649;28;20404;-60
2023/12/30 10:48:21;;;;;;;10.25;2.47;;;;;;;;;;5023710;28;20391;-61
2023/12/30 10:50:46;;;;;;;13.53;2.50;;;;;;;;;;5026327;28;20410;-60
2023/12/30 10:53:14;;;;;;;10.20;2.30;;;;;;;;;;5028426;28;20925;-60
2023/12/30 10:55:40;;;;;;;16.73;2.97;;;;;;;;;;5027062;28;20988;-60
2023/12/30 10:58:11;;;;;;;13.23;2.60;;;;;;;;;;5025920;28;20407;-62
2023/12/30 11:00:36;;;;;;;13.65;2.65;;;;;;;;;;5027317;28;20429;-60
2023/12/30 11:03:03;;;;;;;11.93;2.90;;;;;;;;;;5027572;28;20407;-61
2023/12/30 11:05:36;;;;;;;16.50;3.27;;;;;;;;;;5028509;28;20418;-60
2023/12/30 11:08:02;;;;;;;12.05;2.92;;;;;;;;;;5027914;28;20482;-61
2023/12/30 11:10:27;;;;;;;13.85;2.80;;;;;;;;;;5025710;28;20415;-60
2023/12/30 11:12:53;;;;;;;15.30;3.57;;;;;;;;;;5028638;28;20417;-60
2023/12/30 11:15:22;;;;;;;15.50;2.72;;;;;;;;;;5027614;28;20408;-60
2023/12/30 11:17:47;;;;;;;11.98;2.95;;;;;;;;;;5027411;28;20399;-60
2023/12/30 11:20:23;;;;;;;16.33;3.57;;;;;;;;;;5027230;28;20423;-61
2023/12/30 11:22:48;;;;;;;15.70;3.27;;;;;;;;;;5028069;28;20422;-60
2023/12/30 11:25:14;;;;;;;16.33;3.30;;;;;;;;;;5027285;28;21016;-61
2023/12/30 11:27:39;;;;;;;16.17;3.00;;;;;;;;;;5028207;28;20450;-60
2023/12/30 11:30:05;;;;;;;14.77;3.07;;;;;;;;;;5026768;28;20457;-61
2023/12/30 11:32:30;;;;;;;12.15;2.70;;;;;;;;;;5027552;28;20395;-60
2023/12/30 11:34:59;;;;;;;15.37;3.40;;;;;;;;;;5028060;28;20500;-60
2023/12/30 11:37:24;;;;;;;16.13;3.08;;;;;;;;;;5025969;28;20394;-60
2023/12/30 11:39:50;;;;;;;15.00;3.40;;;;;;;;;;5025683;28;20917;-60
2023/12/30 11:42:15;;;;;;;14.70;3.33;;;;;;;;;;5026347;28;20418;-60
2023/12/30 11:44:41;;;;;;;14.17;3.23;;;;;;;;;;5026480;28;20917;-60
2023/12/30 11:47:06;;;;;;;17.57;3.60;;;;;;;;;;5041965;28;20426;-61
2023/12/30 11:49:31;;;;;;;15.93;3.53;;;;;;;;;;5022446;28;20399;-60
2023/12/30 11:52:03;;;;;;;15.07;3.97;;;;;;;;;;5027682;28;20793;-60
2023/12/30 11:54:28;;;;;;;18.53;3.87;;;;;;;;;;5027402;28;20403;-60
2023/12/30 11:56:54;;;;;;;15.15;3.50;;;;;;;;;;5025869;28;20921;-60
2023/12/30 11:59:19;;;;;;;13.83;3.40;;;;;;;;;;5020095;28;20524;-60
2023/12/30 12:01:46;;;;;;;14.50;3.80;;;;;;;;;;5006232;28;20442;-60
2023/12/30 12:04:11;;;;;;;16.98;3.92;;;;;;;;;;5019651;28;20469;-61
2023/12/30 12:06:37;;;;;;;16.67;4.07;;;;;;;;;;5019901;28;20407;-60
2023/12/30 12:09:04;;;;;;;16.85;3.58;;;;;;;;;;5019968;28;20403;-61
2023/12/30 12:11:29;;;;;;;14.80;4.15;;;;;;;;;;5019470;28;20403;-61
2023/12/30 12:13:56;;;;;;;17.52;4.40;;;;;;;;;;5019582;28;20481;-60
2023/12/30 12:16:21;;;;;;;19.70;4.75;;;;;;;;;;5019915;28;20411;-61
2023/12/30 12:18:47;;;;;;;14.73;4.07;;;;;;;;;;5019733;28;20395;-60
2023/12/30 12:21:12;;;;;;;17.13;4.33;;;;;;;;;;5033434;28;21365;-61
2023/12/30 12:23:37;;;;;;;16.83;4.80;;;;;;;;;;5034933;28;20407;-60
2023/12/30 12:26:04;;;;;;;18.77;4.57;;;;;;;;;;5019274;28;20414;-60
2023/12/30 12:28:30;;;;;;;15.50;4.40;;;;;;;;;;5019631;28;20426;-60
2023/12/30 12:30:55;;;;;;;14.83;4.30;;;;;;;;;;5037457;28;21334;-60
2023/12/30 12:33:21;;;;;;;18.75;4.97;;;;;;;;;;5034082;28;20411;-60
2023/12/30 12:35:46;;;;;;;17.53;4.90;;;;;;;;;;5023064;28;20762;-60
2023/12/30 12:38:11;;;;;;;17.60;4.70;;;;;;;;;;5023225;28;20391;-60
2023/12/30 12:40:38;;;;;;;20.00;4.93;;;;;;;;;;5022725;28;20504;-61
2023/12/30 12:43:03;;;;;;;15.97;4.60;;;;;;;;;;5022988;28;20396;-61
2023/12/30 12:45:29;;;;;;;17.00;4.53;;;;;;;;;;5023167;28;20398;-60
2023/12/30 12:47:54;;;;;;;15.13;4.50;;;;;;;;;;5019085;28;20399;-60
2023/12/30 12:50:19;;;;;;;17.37;4.53;;;;;;;;;;5021812;28;20480;-60
2023/12/30 12:52:45;;;;;;;16.13;4.73;;;;;;;;;;5038096;28;20407;-60
2023/12/30 12:55:12;;;;;;;18.25;4.68;;;;;;;;;;5022244;28;20399;-61
2023/12/30 12:57:37;;;;;;;17.50;4.38;;;;;;;;;;5022551;28;20405;-59
2023/12/30 13:00:08;;;;;;;17.47;4.87;;;;;;;;;;5021904;28;20411;-60
2023/12/30 13:02:34;;;;;;;18.40;4.80;;;;;;;;;;5022641;28;20441;-60
2023/12/30 13:05:00;;;;;;;17.65;4.60;;;;;;;;;;5021048;28;20407;-60
2023/12/30 13:07:25;;;;;;;17.60;4.20;;;;;;;;;;5022420;28;20406;-60
2023/12/30 13:09:59;;;;;;;18.50;4.50;;;;;;;;;;5022100;28;20407;-60
2023/12/30 13:12:24;;;;;;;17.27;4.35;;;;;;;;;;5022062;28;20400;-60
2023/12/30 13:14:51;;;;;;;18.87;4.90;;;;;;;;;;5017416;28;20406;-60
2023/12/30 13:17:17;;;;;;;19.02;4.30;;;;;;;;;;5021433;28;20449;-60
2023/12/30 13:19:44;;;;;;;16.35;4.70;;;;;;;;;;5022437;28;20626;-61
2023/12/30 13:22:09;;;;;;;18.75;4.80;;;;;;;;;;5017758;28;20485;-61
2023/12/30 13:24:37;;;;;;;18.65;4.78;;;;;;;;;;5022981;28;20881;-60
2023/12/30 13:27:03;;;;;;;16.70;4.50;;;;;;;;;;5022110;28;20465;-60
2023/12/30 13:29:30;;;;;;;16.23;4.50;;;;;;;;;;5018633;28;20809;-60
2023/12/30 13:31:56;;;;;;;17.80;4.37;;;;;;;;;;5021167;28;20426;-60
2023/12/30 13:34:21;;;;;;;14.05;3.90;;;;;;;;;;5022306;28;20492;-60
2023/12/30 13:36:48;;;;;;;14.37;4.20;;;;;;;;;;5022568;28;21138;-60
2023/12/30 13:39:14;;;;;;;18.15;4.50;;;;;;;;;;5021492;28;20395;-60
2023/12/30 13:41:40;;;;;;;16.95;4.20;;;;;;;;;;5021556;28;20970;-60
2023/12/30 13:44:07;;;;;;;16.53;4.30;;;;;;;;;;5018291;28;20395;-61
2023/12/30 13:49:31;;;;;;;14.17;3.27;;;;;;;;;;5013951;28;20754;-60
2023/12/30 13:51:55;;;;;;;17.42;3.95;;;;;;;;;;5021305;28;20399;-60
2023/12/30 13:54:22;;;;;;;15.77;3.45;;;;;;;;;;5021749;28;20386;-61
2023/12/30 13:56:52;;;;;;;11.53;3.40;;;;;;;;;;5021552;28;20469;-60
2023/12/30 13:59:18;;;;;;;16.80;4.15;;;;;;;;;;5021324;28;20824;-60
2023/12/30 14:01:44;;;;;;;14.05;3.47;;;;;;;;;;5021557;28;20875;-60
2023/12/30 14:04:11;;;;;;;13.70;3.17;;;;;;;;;;5021362;28;20473;-60
2023/12/30 14:06:38;;;;;;;13.52;3.60;;;;;;;;;;5021885;28;20395;-60
2023/12/30 14:09:25;;;;;;;15.00;3.67;;;;;;;;;;5021307;28;20896;-61
2023/12/30 14:11:59;;;;;;;13.15;3.10;;;;;;;;;;5021339;28;20873;-60
2023/12/30 14:14:26;;;;;;;13.15;3.00;;;;;;;;;;5021040;28;20410;-60
2023/12/30 14:16:52;;;;;;;11.10;3.05;;;;;;;;;;5021751;28;20399;-60
2023/12/30 14:19:17;;;;;;;14.17;3.60;;;;;;;;;;5021283;28;20413;-60
2023/12/30 14:21:42;;;;;;;13.23;3.20;;;;;;;;;;5020086;28;20419;-60
2023/12/30 14:24:08;;;;;;;13.67;3.17;;;;;;;;;;5021079;28;20411;-60
2023/12/30 14:26:33;;;;;;;12.35;3.00;;;;;;;;;;5021281;28;20502;-59